sensor_id;sensor_type;location;lat;lon;timestamp;P1;durP1;ratioP1;P2;durP2;ratioP2
37237;SDS011;23129;49.662;8.448;2023-07-28T00:00:21;7.30;;;4.13;;
37237;SDS011;23129;49.662;8.448;2023-07-28T00:02:50;10.23;;;5.38;;
37237;SDS011;23129;49.662;8.448;2023-07-28T00:05:18;8.60;;;5.55;;
37237;SDS011;23129;49.662;8.448;2023-07-28T00:07:48;6.68;;;4.78;;
37237;SDS011;23129;49.662;8.448;2023-07-28T00:10:17;13.50;;;4.90;;
37237;SDS011;23129;49.662;8.448;2023-07-28T00:12:45;12.43;;;5.28;;
37237;SDS011;23129;49.662;8.448;2023-07-28T00:15:14;7.38;;;4.97;;
37237;SDS011;23129;49.662;8.448;2023-07-28T00:17:43;9.52;;;5.82;;
37237;SDS011;23129;49.662;8.448;2023-07-28T00:20:11;7.30;;;4.80;;
37237;SDS011;23129;49.662;8.448;2023-07-28T00:22:40;14.63;;;5.63;;
37237;SDS011;23129;49.662;8.448;2023-07-28T00:25:10;9.18;;;5.07;;
37237;SDS011;23129;49.662;8.448;2023-07-28T00:27:38;6.82;;;4.63;;
37237;SDS011;23129;49.662;8.448;2023-07-28T00:30:07;11.35;;;4.65;;
37237;SDS011;23129;49.662;8.448;2023-07-28T00:32:37;14.82;;;6.40;;
37237;SDS011;23129;49.662;8.448;2023-07-28T00:35:08;9.95;;;6.13;;
37237;SDS011;23129;49.662;8.448;2023-07-28T00:37:37;11.10;;;6.03;;
37237;SDS011;23129;49.662;8.448;2023-07-28T00:40:06;11.07;;;5.68;;
37237;SDS011;23129;49.662;8.448;2023-07-28T00:42:37;8.88;;;5.38;;
37237;SDS011;23129;49.662;8.448;2023-07-28T00:45:05;9.50;;;5.20;;
37237;SDS011;23129;49.662;8.448;2023-07-28T00:47:35;10.13;;;4.85;;
37237;SDS011;23129;49.662;8.448;2023-07-28T00:50:04;8.48;;;5.30;;
37237;SDS011;23129;49.662;8.448;2023-07-28T00:52:34;7.32;;;4.63;;
37237;SDS011;23129;49.662;8.448;2023-07-28T00:55:03;4.88;;;3.63;;
37237;SDS011;23129;49.662;8.448;2023-07-28T00:57:33;5.53;;;3.60;;
37237;SDS011;23129;49.662;8.448;2023-07-28T01:00:03;9.20;;;3.40;;
37237;SDS011;23129;49.662;8.448;2023-07-28T01:02:33;3.22;;;2.80;;
37237;SDS011;23129;49.662;8.448;2023-07-28T01:05:02;5.55;;;2.60;;
37237;SDS011;23129;49.662;8.448;2023-07-28T01:07:34;3.55;;;2.38;;
37237;SDS011;23129;49.662;8.448;2023-07-28T01:10:12;4.00;;;2.30;;
37237;SDS011;23129;49.662;8.448;2023-07-28T01:12:44;5.53;;;3.80;;
37237;SDS011;23129;49.662;8.448;2023-07-28T01:15:14;4.88;;;2.60;;
37237;SDS011;23129;49.662;8.448;2023-07-28T01:17:43;5.00;;;3.28;;
37237;SDS011;23129;49.662;8.448;2023-07-28T01:20:11;7.05;;;3.30;;
37237;SDS011;23129;49.662;8.448;2023-07-28T01:22:54;3.72;;;2.85;;
37237;SDS011;23129;49.662;8.448;2023-07-28T01:25:42;7.85;;;2.90;;
37237;SDS011;23129;49.662;8.448;2023-07-28T01:28:23;3.88;;;2.90;;
37237;SDS011;23129;49.662;8.448;2023-07-28T01:30:51;4.15;;;3.33;;
37237;SDS011;23129;49.662;8.448;2023-07-28T01:33:20;6.72;;;2.72;;
37237;SDS011;23129;49.662;8.448;2023-07-28T01:35:49;5.28;;;2.80;;
37237;SDS011;23129;49.662;8.448;2023-07-28T01:38:17;6.13;;;3.45;;
37237;SDS011;23129;49.662;8.448;2023-07-28T01:40:46;4.93;;;3.60;;
37237;SDS011;23129;49.662;8.448;2023-07-28T01:43:15;5.03;;;4.05;;
37237;SDS011;23129;49.662;8.448;2023-07-28T01:45:44;4.03;;;3.63;;
37237;SDS011;23129;49.662;8.448;2023-07-28T01:48:13;10.13;;;6.00;;
37237;SDS011;23129;49.662;8.448;2023-07-28T01:50:42;6.68;;;3.75;;
37237;SDS011;23129;49.662;8.448;2023-07-28T01:53:11;12.10;;;4.20;;
37237;SDS011;23129;49.662;8.448;2023-07-28T01:55:39;6.47;;;3.63;;
37237;SDS011;23129;49.662;8.448;2023-07-28T01:58:09;9.35;;;3.70;;
37237;SDS011;23129;49.662;8.448;2023-07-28T02:00:37;4.70;;;2.95;;
37237;SDS011;23129;49.662;8.448;2023-07-28T02:03:07;5.75;;;3.35;;
37237;SDS011;23129;49.662;8.448;2023-07-28T02:05:36;10.43;;;2.90;;
37237;SDS011;23129;49.662;8.448;2023-07-28T02:08:04;3.75;;;2.90;;
37237;SDS011;23129;49.662;8.448;2023-07-28T02:10:33;8.52;;;2.80;;
37237;SDS011;23129;49.662;8.448;2023-07-28T02:13:02;5.60;;;2.65;;
37237;SDS011;23129;49.662;8.448;2023-07-28T02:15:30;4.25;;;2.40;;
37237;SDS011;23129;49.662;8.448;2023-07-28T02:17:59;6.05;;;2.65;;
37237;SDS011;23129;49.662;8.448;2023-07-28T02:20:29;7.40;;;3.22;;
37237;SDS011;23129;49.662;8.448;2023-07-28T02:22:59;4.00;;;3.22;;
37237;SDS011;23129;49.662;8.448;2023-07-28T02:25:28;5.25;;;3.55;;
37237;SDS011;23129;49.662;8.448;2023-07-28T02:27:57;3.47;;;3.15;;
37237;SDS011;23129;49.662;8.448;2023-07-28T02:30:25;11.30;;;3.35;;
37237;SDS011;23129;49.662;8.448;2023-07-28T02:32:55;6.38;;;3.05;;
37237;SDS011;23129;49.662;8.448;2023-07-28T02:35:23;11.02;;;2.72;;
37237;SDS011;23129;49.662;8.448;2023-07-28T02:37:54;5.78;;;3.25;;
37237;SDS011;23129;49.662;8.448;2023-07-28T02:40:22;2.83;;;2.58;;
37237;SDS011;23129;49.662;8.448;2023-07-28T02:42:53;2.60;;;2.25;;
37237;SDS011;23129;49.662;8.448;2023-07-28T02:45:23;3.55;;;2.30;;
37237;SDS011;23129;49.662;8.448;2023-07-28T02:47:52;2.47;;;2.25;;
37237;SDS011;23129;49.662;8.448;2023-07-28T02:50:22;2.40;;;2.20;;
37237;SDS011;23129;49.662;8.448;2023-07-28T02:52:51;4.40;;;1.88;;
37237;SDS011;23129;49.662;8.448;2023-07-28T02:55:21;3.55;;;2.25;;
37237;SDS011;23129;49.662;8.448;2023-07-28T02:57:50;2.72;;;2.03;;
37237;SDS011;23129;49.662;8.448;2023-07-28T03:00:19;5.65;;;2.33;;
37237;SDS011;23129;49.662;8.448;2023-07-28T03:02:47;3.85;;;1.65;;
37237;SDS011;23129;49.662;8.448;2023-07-28T03:05:16;2.97;;;1.88;;
37237;SDS011;23129;49.662;8.448;2023-07-28T03:08:03;3.40;;;2.13;;
37237;SDS011;23129;49.662;8.448;2023-07-28T03:10:32;3.20;;;1.77;;
37237;SDS011;23129;49.662;8.448;2023-07-28T03:13:01;4.82;;;2.65;;
37237;SDS011;23129;49.662;8.448;2023-07-28T03:15:29;2.60;;;2.08;;
37237;SDS011;23129;49.662;8.448;2023-07-28T03:17:58;2.13;;;1.92;;
37237;SDS011;23129;49.662;8.448;2023-07-28T03:20:27;7.47;;;2.38;;
37237;SDS011;23129;49.662;8.448;2023-07-28T03:22:55;4.70;;;2.60;;
37237;SDS011;23129;49.662;8.448;2023-07-28T03:25:25;3.88;;;2.70;;
37237;SDS011;23129;49.662;8.448;2023-07-28T03:27:54;3.30;;;2.55;;
37237;SDS011;23129;49.662;8.448;2023-07-28T03:30:23;12.07;;;3.50;;
37237;SDS011;23129;49.662;8.448;2023-07-28T03:32:51;4.38;;;2.53;;
37237;SDS011;23129;49.662;8.448;2023-07-28T03:35:20;4.15;;;3.25;;
37237;SDS011;23129;49.662;8.448;2023-07-28T03:37:58;6.63;;;3.28;;
37237;SDS011;23129;49.662;8.448;2023-07-28T03:40:28;5.35;;;2.70;;
37237;SDS011;23129;49.662;8.448;2023-07-28T03:42:57;5.70;;;3.13;;
37237;SDS011;23129;49.662;8.448;2023-07-28T03:45:26;4.82;;;4.13;;
37237;SDS011;23129;49.662;8.448;2023-07-28T03:47:55;8.98;;;2.67;;
37237;SDS011;23129;49.662;8.448;2023-07-28T03:50:23;4.78;;;3.33;;
37237;SDS011;23129;49.662;8.448;2023-07-28T03:52:52;4.15;;;2.88;;
37237;SDS011;23129;49.662;8.448;2023-07-28T03:55:21;6.25;;;2.83;;
37237;SDS011;23129;49.662;8.448;2023-07-28T03:57:50;4.40;;;2.78;;
37237;SDS011;23129;49.662;8.448;2023-07-28T04:00:19;4.63;;;2.72;;
37237;SDS011;23129;49.662;8.448;2023-07-28T04:02:48;4.78;;;3.38;;
37237;SDS011;23129;49.662;8.448;2023-07-28T04:05:16;4.55;;;3.00;;
37237;SDS011;23129;49.662;8.448;2023-07-28T04:07:45;7.07;;;2.95;;
37237;SDS011;23129;49.662;8.448;2023-07-28T04:10:14;3.92;;;3.30;;
37237;SDS011;23129;49.662;8.448;2023-07-28T04:12:43;5.57;;;3.55;;
37237;SDS011;23129;49.662;8.448;2023-07-28T04:15:13;3.40;;;2.90;;
37237;SDS011;23129;49.662;8.448;2023-07-28T04:17:41;5.03;;;2.78;;
37237;SDS011;23129;49.662;8.448;2023-07-28T04:20:10;7.05;;;2.95;;
37237;SDS011;23129;49.662;8.448;2023-07-28T04:22:39;4.65;;;3.50;;
37237;SDS011;23129;49.662;8.448;2023-07-28T04:25:09;3.80;;;2.83;;
37237;SDS011;23129;49.662;8.448;2023-07-28T04:27:41;5.43;;;3.00;;
37237;SDS011;23129;49.662;8.448;2023-07-28T04:30:11;3.22;;;2.90;;
37237;SDS011;23129;49.662;8.448;2023-07-28T04:32:41;7.32;;;2.50;;
37237;SDS011;23129;49.662;8.448;2023-07-28T04:35:15;9.57;;;2.97;;
37237;SDS011;23129;49.662;8.448;2023-07-28T04:38:06;3.17;;;2.22;;
37237;SDS011;23129;49.662;8.448;2023-07-28T04:40:45;10.30;;;2.47;;
37237;SDS011;23129;49.662;8.448;2023-07-28T04:43:17;2.72;;;2.35;;
37237;SDS011;23129;49.662;8.448;2023-07-28T04:45:53;4.60;;;2.97;;
37237;SDS011;23129;49.662;8.448;2023-07-28T04:48:23;4.50;;;2.97;;
37237;SDS011;23129;49.662;8.448;2023-07-28T04:50:52;4.68;;;2.67;;
37237;SDS011;23129;49.662;8.448;2023-07-28T04:53:39;2.78;;;2.53;;
37237;SDS011;23129;49.662;8.448;2023-07-28T04:56:16;3.97;;;2.75;;
37237;SDS011;23129;49.662;8.448;2023-07-28T04:58:44;2.83;;;2.50;;
37237;SDS011;23129;49.662;8.448;2023-07-28T05:01:14;3.25;;;2.25;;
37237;SDS011;23129;49.662;8.448;2023-07-28T05:03:45;3.60;;;2.05;;
37237;SDS011;23129;49.662;8.448;2023-07-28T05:06:19;3.37;;;2.47;;
37237;SDS011;23129;49.662;8.448;2023-07-28T05:08:47;2.15;;;1.40;;
37237;SDS011;23129;49.662;8.448;2023-07-28T05:11:23;3.85;;;1.38;;
37237;SDS011;23129;49.662;8.448;2023-07-28T05:13:51;1.20;;;1.10;;
37237;SDS011;23129;49.662;8.448;2023-07-28T05:16:21;1.40;;;1.30;;
37237;SDS011;23129;49.662;8.448;2023-07-28T05:19:07;2.22;;;1.65;;
37237;SDS011;23129;49.662;8.448;2023-07-28T05:21:55;3.50;;;1.27;;
37237;SDS011;23129;49.662;8.448;2023-07-28T05:24:42;2.50;;;1.23;;
37237;SDS011;23129;49.662;8.448;2023-07-28T05:27:13;1.25;;;1.15;;
37237;SDS011;23129;49.662;8.448;2023-07-28T05:29:45;1.98;;;1.13;;
37237;SDS011;23129;49.662;8.448;2023-07-28T05:32:15;2.30;;;1.40;;
37237;SDS011;23129;49.662;8.448;2023-07-28T05:35:06;3.97;;;1.60;;
37237;SDS011;23129;49.662;8.448;2023-07-28T05:37:35;1.63;;;1.52;;
37237;SDS011;23129;49.662;8.448;2023-07-28T05:40:05;1.45;;;1.35;;
37237;SDS011;23129;49.662;8.448;2023-07-28T05:42:35;4.15;;;1.95;;
37237;SDS011;23129;49.662;8.448;2023-07-28T05:45:04;1.52;;;1.33;;
37237;SDS011;23129;49.662;8.448;2023-07-28T05:47:35;3.28;;;1.45;;
37237;SDS011;23129;49.662;8.448;2023-07-28T05:50:04;3.63;;;1.20;;
37237;SDS011;23129;49.662;8.448;2023-07-28T05:52:33;1.30;;;1.20;;
37237;SDS011;23129;49.662;8.448;2023-07-28T05:55:02;3.50;;;1.00;;
37237;SDS011;23129;49.662;8.448;2023-07-28T05:57:31;1.23;;;1.10;;
37237;SDS011;23129;49.662;8.448;2023-07-28T06:00:04;3.05;;;0.95;;
37237;SDS011;23129;49.662;8.448;2023-07-28T06:02:43;1.23;;;1.10;;
37237;SDS011;23129;49.662;8.448;2023-07-28T06:05:26;1.38;;;1.15;;
37237;SDS011;23129;49.662;8.448;2023-07-28T06:07:55;1.65;;;1.23;;
37237;SDS011;23129;49.662;8.448;2023-07-28T06:10:23;3.92;;;2.20;;
37237;SDS011;23129;49.662;8.448;2023-07-28T06:12:52;2.42;;;1.58;;
37237;SDS011;23129;49.662;8.448;2023-07-28T06:15:20;2.10;;;1.08;;
37237;SDS011;23129;49.662;8.448;2023-07-28T06:17:50;1.73;;;1.63;;
37237;SDS011;23129;49.662;8.448;2023-07-28T06:20:19;2.55;;;1.38;;
37237;SDS011;23129;49.662;8.448;2023-07-28T06:22:48;4.32;;;1.55;;
37237;SDS011;23129;49.662;8.448;2023-07-28T06:25:16;4.65;;;1.77;;
37237;SDS011;23129;49.662;8.448;2023-07-28T06:27:45;3.95;;;1.33;;
37237;SDS011;23129;49.662;8.448;2023-07-28T06:30:14;2.35;;;1.52;;
37237;SDS011;23129;49.662;8.448;2023-07-28T06:32:42;3.70;;;1.20;;
37237;SDS011;23129;49.662;8.448;2023-07-28T06:35:12;2.45;;;1.98;;
37237;SDS011;23129;49.662;8.448;2023-07-28T06:37:41;3.60;;;1.70;;
37237;SDS011;23129;49.662;8.448;2023-07-28T06:40:09;2.80;;;1.60;;
37237;SDS011;23129;49.662;8.448;2023-07-28T06:42:38;1.92;;;1.35;;
37237;SDS011;23129;49.662;8.448;2023-07-28T06:45:08;1.95;;;1.70;;
37237;SDS011;23129;49.662;8.448;2023-07-28T06:47:37;2.00;;;1.33;;
37237;SDS011;23129;49.662;8.448;2023-07-28T06:50:06;5.97;;;1.80;;
37237;SDS011;23129;49.662;8.448;2023-07-28T06:52:36;1.52;;;1.40;;
37237;SDS011;23129;49.662;8.448;2023-07-28T06:55:05;3.30;;;1.65;;
37237;SDS011;23129;49.662;8.448;2023-07-28T06:57:34;2.17;;;1.98;;
37237;SDS011;23129;49.662;8.448;2023-07-28T07:00:06;4.18;;;2.08;;
37237;SDS011;23129;49.662;8.448;2023-07-28T07:02:36;2.88;;;2.38;;
37237;SDS011;23129;49.662;8.448;2023-07-28T07:05:05;2.13;;;1.90;;
37237;SDS011;23129;49.662;8.448;2023-07-28T07:07:34;5.15;;;2.22;;
37237;SDS011;23129;49.662;8.448;2023-07-28T07:10:06;2.25;;;1.85;;
37237;SDS011;23129;49.662;8.448;2023-07-28T07:12:35;2.67;;;2.25;;
37237;SDS011;23129;49.662;8.448;2023-07-28T07:15:05;5.18;;;2.25;;
37237;SDS011;23129;49.662;8.448;2023-07-28T07:17:34;2.55;;;2.05;;
37237;SDS011;23129;49.662;8.448;2023-07-28T07:20:03;2.10;;;1.88;;
37237;SDS011;23129;49.662;8.448;2023-07-28T07:22:32;4.13;;;2.58;;
37237;SDS011;23129;49.662;8.448;2023-07-28T07:25:02;5.70;;;2.20;;
37237;SDS011;23129;49.662;8.448;2023-07-28T07:27:33;2.92;;;2.63;;
37237;SDS011;23129;49.662;8.448;2023-07-28T07:30:02;5.78;;;2.30;;
37237;SDS011;23129;49.662;8.448;2023-07-28T07:32:32;4.22;;;2.85;;
37237;SDS011;23129;49.662;8.448;2023-07-28T07:35:01;8.57;;;2.70;;
37237;SDS011;23129;49.662;8.448;2023-07-28T07:37:30;2.83;;;2.40;;
37237;SDS011;23129;49.662;8.448;2023-07-28T07:39:58;2.88;;;2.35;;
37237;SDS011;23129;49.662;8.448;2023-07-28T07:42:41;3.45;;;2.63;;
37237;SDS011;23129;49.662;8.448;2023-07-28T07:45:10;6.78;;;3.47;;
37237;SDS011;23129;49.662;8.448;2023-07-28T07:47:40;11.25;;;2.88;;
37237;SDS011;23129;49.662;8.448;2023-07-28T07:50:09;4.53;;;2.50;;
37237;SDS011;23129;49.662;8.448;2023-07-28T07:52:39;3.65;;;2.60;;
37237;SDS011;23129;49.662;8.448;2023-07-28T07:55:09;2.53;;;2.30;;
37237;SDS011;23129;49.662;8.448;2023-07-28T07:57:40;4.05;;;2.60;;
37237;SDS011;23129;49.662;8.448;2023-07-28T08:00:11;3.15;;;2.20;;
37237;SDS011;23129;49.662;8.448;2023-07-28T08:02:40;2.83;;;1.80;;
37237;SDS011;23129;49.662;8.448;2023-07-28T08:05:12;3.88;;;2.10;;
37237;SDS011;23129;49.662;8.448;2023-07-28T08:07:41;2.42;;;2.15;;
37237;SDS011;23129;49.662;8.448;2023-07-28T08:10:10;2.40;;;2.20;;
37237;SDS011;23129;49.662;8.448;2023-07-28T08:12:40;1.65;;;1.52;;
37237;SDS011;23129;49.662;8.448;2023-07-28T08:15:11;4.03;;;1.55;;
37237;SDS011;23129;49.662;8.448;2023-07-28T08:17:40;1.58;;;1.40;;
37237;SDS011;23129;49.662;8.448;2023-07-28T08:20:08;2.35;;;1.40;;
37237;SDS011;23129;49.662;8.448;2023-07-28T08:22:37;1.90;;;1.80;;
37237;SDS011;23129;49.662;8.448;2023-07-28T08:25:06;4.32;;;2.20;;
37237;SDS011;23129;49.662;8.448;2023-07-28T08:27:35;1.75;;;1.65;;
37237;SDS011;23129;49.662;8.448;2023-07-28T08:30:05;2.60;;;1.40;;
37237;SDS011;23129;49.662;8.448;2023-07-28T08:32:35;1.35;;;1.20;;
37237;SDS011;23129;49.662;8.448;2023-07-28T08:35:03;7.80;;;1.50;;
37237;SDS011;23129;49.662;8.448;2023-07-28T08:37:33;2.20;;;1.48;;
37237;SDS011;23129;49.662;8.448;2023-07-28T08:40:01;1.05;;;1.05;;
37237;SDS011;23129;49.662;8.448;2023-07-28T08:42:35;1.30;;;1.30;;
37237;SDS011;23129;49.662;8.448;2023-07-28T08:45:07;1.30;;;1.20;;
37237;SDS011;23129;49.662;8.448;2023-07-28T08:47:36;1.55;;;1.45;;
37237;SDS011;23129;49.662;8.448;2023-07-28T08:50:06;1.77;;;1.67;;
37237;SDS011;23129;49.662;8.448;2023-07-28T08:52:35;2.22;;;1.70;;
37237;SDS011;23129;49.662;8.448;2023-07-28T08:55:03;1.08;;;1.02;;
37237;SDS011;23129;49.662;8.448;2023-07-28T08:57:32;5.63;;;0.80;;
37237;SDS011;23129;49.662;8.448;2023-07-28T09:00:08;0.93;;;0.90;;
37237;SDS011;23129;49.662;8.448;2023-07-28T09:02:40;1.55;;;1.13;;
37237;SDS011;23129;49.662;8.448;2023-07-28T09:05:15;0.95;;;0.80;;
37237;SDS011;23129;49.662;8.448;2023-07-28T09:07:46;0.90;;;0.57;;
37237;SDS011;23129;49.662;8.448;2023-07-28T09:10:15;3.10;;;0.60;;
37237;SDS011;23129;49.662;8.448;2023-07-28T09:12:47;1.20;;;0.88;;
37237;SDS011;23129;49.662;8.448;2023-07-28T09:15:17;0.60;;;0.60;;
37237;SDS011;23129;49.662;8.448;2023-07-28T09:17:47;0.93;;;0.90;;
37237;SDS011;23129;49.662;8.448;2023-07-28T09:20:16;1.15;;;1.02;;
37237;SDS011;23129;49.662;8.448;2023-07-28T09:22:45;1.10;;;1.00;;
37237;SDS011;23129;49.662;8.448;2023-07-28T09:25:14;0.80;;;0.80;;
37237;SDS011;23129;49.662;8.448;2023-07-28T09:27:49;1.20;;;1.10;;
37237;SDS011;23129;49.662;8.448;2023-07-28T09:30:20;1.20;;;1.10;;
37237;SDS011;23129;49.662;8.448;2023-07-28T09:32:50;0.90;;;0.90;;
37237;SDS011;23129;49.662;8.448;2023-07-28T09:35:20;0.85;;;0.85;;
37237;SDS011;23129;49.662;8.448;2023-07-28T09:37:50;0.85;;;0.60;;
37237;SDS011;23129;49.662;8.448;2023-07-28T09:40:21;1.20;;;1.10;;
37237;SDS011;23129;49.662;8.448;2023-07-28T09:42:51;0.98;;;0.85;;
37237;SDS011;23129;49.662;8.448;2023-07-28T09:45:23;3.05;;;0.70;;
37237;SDS011;23129;49.662;8.448;2023-07-28T09:48:05;1.00;;;1.00;;
37237;SDS011;23129;49.662;8.448;2023-07-28T09:50:35;1.58;;;0.88;;
37237;SDS011;23129;49.662;8.448;2023-07-28T09:53:07;1.27;;;1.00;;
37237;SDS011;23129;49.662;8.448;2023-07-28T09:55:38;0.75;;;0.68;;
37237;SDS011;23129;49.662;8.448;2023-07-28T09:58:09;0.70;;;0.70;;
37237;SDS011;23129;49.662;8.448;2023-07-28T10:00:41;0.75;;;0.70;;
37237;SDS011;23129;49.662;8.448;2023-07-28T10:03:10;1.13;;;0.70;;
37237;SDS011;23129;49.662;8.448;2023-07-28T10:05:41;2.90;;;0.88;;
37237;SDS011;23129;49.662;8.448;2023-07-28T10:08:10;1.27;;;0.95;;
37237;SDS011;23129;49.662;8.448;2023-07-28T10:10:39;3.70;;;0.70;;
37237;SDS011;23129;49.662;8.448;2023-07-28T10:13:18;0.60;;;0.50;;
37237;SDS011;23129;49.662;8.448;2023-07-28T10:15:49;0.88;;;0.80;;
37237;SDS011;23129;49.662;8.448;2023-07-28T10:18:19;0.68;;;0.55;;
37237;SDS011;23129;49.662;8.448;2023-07-28T10:20:49;0.75;;;0.63;;
37237;SDS011;23129;49.662;8.448;2023-07-28T10:23:19;7.32;;;0.80;;
37237;SDS011;23129;49.662;8.448;2023-07-28T10:25:55;0.60;;;0.50;;
37237;SDS011;23129;49.662;8.448;2023-07-28T10:28:27;0.80;;;0.73;;
37237;SDS011;23129;49.662;8.448;2023-07-28T10:31:00;0.60;;;0.60;;
37237;SDS011;23129;49.662;8.448;2023-07-28T10:33:30;2.40;;;0.70;;
37237;SDS011;23129;49.662;8.448;2023-07-28T10:35:59;1.00;;;0.63;;
37237;SDS011;23129;49.662;8.448;2023-07-28T10:38:42;0.93;;;0.93;;
37237;SDS011;23129;49.662;8.448;2023-07-28T10:41:12;0.60;;;0.60;;
37237;SDS011;23129;49.662;8.448;2023-07-28T10:43:42;1.33;;;0.82;;
37237;SDS011;23129;49.662;8.448;2023-07-28T10:46:15;0.50;;;0.50;;
37237;SDS011;23129;49.662;8.448;2023-07-28T10:48:46;0.70;;;0.70;;
37237;SDS011;23129;49.662;8.448;2023-07-28T10:51:20;2.92;;;0.70;;
37237;SDS011;23129;49.662;8.448;2023-07-28T10:53:51;0.95;;;0.70;;
37237;SDS011;23129;49.662;8.448;2023-07-28T10:56:24;0.70;;;0.60;;
37237;SDS011;23129;49.662;8.448;2023-07-28T10:58:56;1.30;;;0.75;;
37237;SDS011;23129;49.662;8.448;2023-07-28T11:01:31;0.77;;;0.77;;
37237;SDS011;23129;49.662;8.448;2023-07-28T11:04:08;1.00;;;1.00;;
37237;SDS011;23129;49.662;8.448;2023-07-28T11:06:38;0.77;;;0.77;;
37237;SDS011;23129;49.662;8.448;2023-07-28T11:09:10;1.45;;;0.68;;
37237;SDS011;23129;49.662;8.448;2023-07-28T11:11:40;0.80;;;0.80;;
37237;SDS011;23129;49.662;8.448;2023-07-28T11:14:14;0.95;;;0.70;;
37237;SDS011;23129;49.662;8.448;2023-07-28T11:16:45;0.82;;;0.75;;
37237;SDS011;23129;49.662;8.448;2023-07-28T11:19:15;1.00;;;0.90;;
37237;SDS011;23129;49.662;8.448;2023-07-28T11:21:51;0.70;;;0.70;;
37237;SDS011;23129;49.662;8.448;2023-07-28T11:24:20;0.80;;;0.80;;
37237;SDS011;23129;49.662;8.448;2023-07-28T11:26:50;1.67;;;0.80;;
37237;SDS011;23129;49.662;8.448;2023-07-28T11:29:19;1.17;;;0.93;;
37237;SDS011;23129;49.662;8.448;2023-07-28T11:31:49;1.20;;;0.90;;
37237;SDS011;23129;49.662;8.448;2023-07-28T11:34:18;0.75;;;0.75;;
37237;SDS011;23129;49.662;8.448;2023-07-28T11:36:47;0.80;;;0.70;;
37237;SDS011;23129;49.662;8.448;2023-07-28T11:39:16;0.82;;;0.45;;
37237;SDS011;23129;49.662;8.448;2023-07-28T11:41:48;0.65;;;0.65;;
37237;SDS011;23129;49.662;8.448;2023-07-28T11:44:20;1.02;;;0.60;;
37237;SDS011;23129;49.662;8.448;2023-07-28T11:46:52;1.33;;;0.80;;
37237;SDS011;23129;49.662;8.448;2023-07-28T11:49:22;2.88;;;0.80;;
37237;SDS011;23129;49.662;8.448;2023-07-28T11:51:52;3.85;;;0.70;;
37237;SDS011;23129;49.662;8.448;2023-07-28T11:54:21;1.95;;;0.80;;
37237;SDS011;23129;49.662;8.448;2023-07-28T11:56:54;1.08;;;1.02;;
37237;SDS011;23129;49.662;8.448;2023-07-28T11:59:24;0.80;;;0.80;;
37237;SDS011;23129;49.662;8.448;2023-07-28T12:01:54;1.10;;;1.00;;
37237;SDS011;23129;49.662;8.448;2023-07-28T12:04:27;1.58;;;0.77;;
37237;SDS011;23129;49.662;8.448;2023-07-28T12:07:01;1.10;;;0.98;;
37237;SDS011;23129;49.662;8.448;2023-07-28T12:09:47;0.57;;;0.57;;
37237;SDS011;23129;49.662;8.448;2023-07-28T12:12:29;1.27;;;1.17;;
37237;SDS011;23129;49.662;8.448;2023-07-28T12:15:17;2.13;;;0.98;;
37237;SDS011;23129;49.662;8.448;2023-07-28T12:18:05;0.80;;;0.80;;
37237;SDS011;23129;49.662;8.448;2023-07-28T12:20:39;2.58;;;0.75;;
37237;SDS011;23129;49.662;8.448;2023-07-28T12:23:13;0.88;;;0.88;;
37237;SDS011;23129;49.662;8.448;2023-07-28T12:25:46;1.23;;;1.13;;
37237;SDS011;23129;49.662;8.448;2023-07-28T12:28:15;2.58;;;1.13;;
37237;SDS011;23129;49.662;8.448;2023-07-28T12:30:45;4.28;;;1.00;;
37237;SDS011;23129;49.662;8.448;2023-07-28T12:33:19;2.33;;;1.30;;
37237;SDS011;23129;49.662;8.448;2023-07-28T12:35:49;1.25;;;1.00;;
37237;SDS011;23129;49.662;8.448;2023-07-28T12:38:18;2.63;;;1.15;;
37237;SDS011;23129;49.662;8.448;2023-07-28T12:40:49;3.85;;;1.00;;
37237;SDS011;23129;49.662;8.448;2023-07-28T12:43:21;1.02;;;1.02;;
37237;SDS011;23129;49.662;8.448;2023-07-28T12:45:53;1.92;;;0.90;;
37237;SDS011;23129;49.662;8.448;2023-07-28T12:48:26;1.83;;;1.23;;
37237;SDS011;23129;49.662;8.448;2023-07-28T12:50:55;1.30;;;1.20;;
37237;SDS011;23129;49.662;8.448;2023-07-28T12:53:26;3.28;;;1.10;;
37237;SDS011;23129;49.662;8.448;2023-07-28T12:55:55;3.20;;;0.90;;
37237;SDS011;23129;49.662;8.448;2023-07-28T12:58:27;1.40;;;0.98;;
37237;SDS011;23129;49.662;8.448;2023-07-28T13:01:00;1.10;;;1.00;;
37237;SDS011;23129;49.662;8.448;2023-07-28T13:03:32;1.20;;;0.93;;
37237;SDS011;23129;49.662;8.448;2023-07-28T13:06:01;1.67;;;1.33;;
37237;SDS011;23129;49.662;8.448;2023-07-28T13:08:30;1.00;;;0.95;;
37237;SDS011;23129;49.662;8.448;2023-07-28T13:11:02;1.38;;;1.27;;
37237;SDS011;23129;49.662;8.448;2023-07-28T13:13:34;1.45;;;1.33;;
37237;SDS011;23129;49.662;8.448;2023-07-28T13:16:05;6.47;;;1.40;;
37237;SDS011;23129;49.662;8.448;2023-07-28T13:18:40;1.38;;;1.27;;
37237;SDS011;23129;49.662;8.448;2023-07-28T13:21:10;1.60;;;1.50;;
37237;SDS011;23129;49.662;8.448;2023-07-28T13:23:39;3.83;;;1.88;;
37237;SDS011;23129;49.662;8.448;2023-07-28T13:26:07;2.78;;;1.60;;
37237;SDS011;23129;49.662;8.448;2023-07-28T13:28:36;2.20;;;2.00;;
37237;SDS011;23129;49.662;8.448;2023-07-28T13:31:06;2.03;;;1.92;;
37237;SDS011;23129;49.662;8.448;2023-07-28T13:33:34;2.28;;;1.88;;
37237;SDS011;23129;49.662;8.448;2023-07-28T13:36:05;2.97;;;1.83;;
37237;SDS011;23129;49.662;8.448;2023-07-28T13:38:34;2.30;;;1.80;;
37237;SDS011;23129;49.662;8.448;2023-07-28T13:41:03;1.40;;;1.30;;
37237;SDS011;23129;49.662;8.448;2023-07-28T13:43:33;1.35;;;1.25;;
37237;SDS011;23129;49.662;8.448;2023-07-28T13:46:03;1.42;;;1.23;;
37237;SDS011;23129;49.662;8.448;2023-07-28T13:48:36;1.85;;;1.10;;
37237;SDS011;23129;49.662;8.448;2023-07-28T13:51:10;3.10;;;1.13;;
37237;SDS011;23129;49.662;8.448;2023-07-28T13:53:41;1.15;;;1.10;;
37237;SDS011;23129;49.662;8.448;2023-07-28T13:56:29;1.40;;;1.00;;
37237;SDS011;23129;49.662;8.448;2023-07-28T13:58:58;1.75;;;0.75;;
37237;SDS011;23129;49.662;8.448;2023-07-28T14:01:27;0.80;;;0.80;;
37237;SDS011;23129;49.662;8.448;2023-07-28T14:03:56;1.27;;;1.20;;
37237;SDS011;23129;49.662;8.448;2023-07-28T14:06:25;2.38;;;0.90;;
37237;SDS011;23129;49.662;8.448;2023-07-28T14:08:54;1.13;;;1.00;;
37237;SDS011;23129;49.662;8.448;2023-07-28T14:11:22;4.05;;;1.02;;
37237;SDS011;23129;49.662;8.448;2023-07-28T14:13:50;10.32;;;1.08;;
37237;SDS011;23129;49.662;8.448;2023-07-28T14:16:19;3.42;;;1.52;;
37237;SDS011;23129;49.662;8.448;2023-07-28T14:18:47;5.55;;;1.67;;
37237;SDS011;23129;49.662;8.448;2023-07-28T14:21:16;1.73;;;1.30;;
37237;SDS011;23129;49.662;8.448;2023-07-28T14:23:46;3.70;;;1.90;;
37237;SDS011;23129;49.662;8.448;2023-07-28T14:26:15;9.88;;;2.45;;
37237;SDS011;23129;49.662;8.448;2023-07-28T14:28:43;5.82;;;2.60;;
37237;SDS011;23129;49.662;8.448;2023-07-28T14:31:12;3.63;;;2.17;;
37237;SDS011;23129;49.662;8.448;2023-07-28T14:33:40;3.03;;;2.08;;
37237;SDS011;23129;49.662;8.448;2023-07-28T14:36:09;3.00;;;2.10;;
37237;SDS011;23129;49.662;8.448;2023-07-28T14:38:38;11.63;;;2.33;;
37237;SDS011;23129;49.662;8.448;2023-07-28T14:41:08;2.85;;;2.47;;
37237;SDS011;23129;49.662;8.448;2023-07-28T14:43:36;2.30;;;1.75;;
37237;SDS011;23129;49.662;8.448;2023-07-28T14:46:05;1.90;;;1.70;;
37237;SDS011;23129;49.662;8.448;2023-07-28T14:48:33;1.92;;;1.75;;
37237;SDS011;23129;49.662;8.448;2023-07-28T14:51:02;5.95;;;2.03;;
37237;SDS011;23129;49.662;8.448;2023-07-28T14:53:31;4.85;;;2.10;;
37237;SDS011;23129;49.662;8.448;2023-07-28T14:56:01;2.92;;;1.88;;
37237;SDS011;23129;49.662;8.448;2023-07-28T14:58:32;2.53;;;1.70;;
37237;SDS011;23129;49.662;8.448;2023-07-28T15:01:00;1.73;;;1.63;;
37237;SDS011;23129;49.662;8.448;2023-07-28T15:03:31;1.95;;;1.75;;
37237;SDS011;23129;49.662;8.448;2023-07-28T15:06:00;2.42;;;1.88;;
37237;SDS011;23129;49.662;8.448;2023-07-28T15:08:30;3.05;;;2.15;;